Quartz Hill, California
Current Conditions -  °F | °C
As of 2:53 AM on Sunday 21 Dec 2014 (Local Time) from KPMD Reporting Station
Clear Clear  
Wind Chill: 46°   Ceiling: Unl
Heat Index: 46°   Visibility: 10mi
Dew Point: 42°   Wind: 3mph
Humidity: 86%   Direction: 220°SW
Pressure: 30.2"   Gusts: NA
Location:  34.5959°N, 118.235°W
Report Text: KPMD 211053Z AUTO 22003KT 10SM CLR 08/06 A3020 RMK AO2 SLP222 T00780056
Loading
Personal Weather Stations






























Interactive Weather Map New forecast layout! Learn more

10-Day Weather Forecast

Advertisements
Track Severe Weather on mobile